Time;durP1;ratioP1;P1;durP2;ratioP2;P2;SDS_P1;SDS_P2;PMS_P1;PMS_P2;Temp;Humidity;BMP_temperature;BMP_pressure;BME280_temperature;BME280_humidity;BME280_pressure;Samples;Min_cycle;Max_cycle;Signal;HPM_P1;HPM_P2
2021/06/03 00:00:37;;;;;;;8.48;2.70;;;21.30;55.70;;;19.99;53.06;100599.69;5105585;28;20724;-82
2021/06/03 00:03:15;;;;;;;9.90;2.90;;;21.30;56.00;;;19.99;53.06;100599.69;5104469;28;20150;-83
2021/06/03 00:05:53;;;;;;;5.10;2.80;;;21.30;55.80;;;19.97;53.82;100601.88;5105956;28;20048;-83
2021/06/03 00:08:34;;;;;;;5.40;2.50;;;21.30;56.40;;;19.97;53.92;100607.41;5116988;28;20389;-82
2021/06/03 00:11:13;;;;;;;6.75;2.90;;;21.30;56.70;;;19.96;54.15;100605.72;5126264;27;20035;-83
2021/06/03 00:13:49;;;;;;;4.50;2.70;;;21.30;57.10;;;19.97;54.25;100601.88;5126303;27;20096;-82
2021/06/03 00:16:33;;;;;;;7.07;2.70;;;21.30;57.50;;;19.96;55.30;100605.72;5126160;27;20048;-83
2021/06/03 00:19:15;;;;;;;4.53;2.67;;;21.30;57.60;;;19.96;55.45;100605.72;5126263;27;20146;-82
2021/06/03 00:21:49;;;;;;;6.80;2.88;;;21.30;57.80;;;19.96;55.46;100611.25;5120100;27;20067;-82
2021/06/03 00:24:27;;;;;;;7.97;2.65;;;21.40;58.00;;;19.96;56.00;100606.56;5083805;28;20044;-83
2021/06/03 00:27:02;;;;;;;5.82;3.28;;;21.40;58.10;;;19.97;55.82;100608.25;5084990;28;20048;-83
2021/06/03 00:29:38;;;;;;;5.75;2.92;;;21.40;58.10;;;19.96;55.98;100606.56;5080858;22;20652;-87
2021/06/03 00:32:16;;;;;;;6.07;2.78;;;21.40;58.20;;;19.96;56.38;100605.72;5025270;28;20053;-87
2021/06/03 00:35:06;;;;;;;5.72;2.90;;;21.40;58.60;;;19.96;56.81;100601.03;5024854;28;20048;-86
2021/06/03 00:37:41;;;;;;;4.97;2.80;;;21.40;58.70;;;19.98;57.07;100603.56;5025144;28;20100;-87
2021/06/03 00:40:18;;;;;;;6.43;3.03;;;21.40;59.10;;;19.99;57.25;100608.00;5024506;28;20050;-87
2021/06/03 00:42:56;;;;;;;6.40;3.25;;;21.50;59.20;;;19.99;57.35;100608.00;5011381;28;20055;-86
2021/06/03 00:45:35;;;;;;;6.15;3.15;;;21.50;59.20;;;19.98;57.39;100609.91;5011707;28;20097;-86
2021/06/03 00:48:12;;;;;;;5.78;3.10;;;21.50;59.50;;;19.98;57.50;100609.91;5011800;28;20108;-87
2021/06/03 00:50:53;;;;;;;5.90;3.35;;;21.50;59.50;;;19.97;58.00;100607.41;4993709;28;20388;-86
2021/06/03 00:53:26;;;;;;;6.10;2.75;;;21.50;59.80;;;19.97;58.69;100610.16;5011642;28;20052;-86
2021/06/03 00:56:03;;;;;;;10.45;3.30;;;21.50;60.30;;;19.98;58.69;100606.31;5011489;28;20049;-86
2021/06/03 00:58:39;;;;;;;8.82;3.38;;;21.50;60.40;;;19.96;58.54;100611.25;4993759;28;20042;-87
2021/06/03 01:01:24;;;;;;;6.63;3.00;;;21.50;60.70;;;19.96;58.85;100614.03;4993521;28;20049;-87
2021/06/03 01:04:00;;;;;;;8.90;3.50;;;21.40;60.20;;;19.94;58.99;100614.25;4993687;28;20041;-86
2021/06/03 01:06:38;;;;;;;8.32;3.13;;;21.40;60.90;;;19.95;58.86;100609.56;5011313;28;20053;-86
2021/06/03 01:09:27;;;;;;;6.25;3.15;;;21.40;61.30;;;19.94;58.92;100618.94;5010382;28;20049;-87
2021/06/03 01:12:06;;;;;;;6.70;2.95;;;21.30;61.80;;;19.92;59.06;100611.72;5013098;28;20045;-86
2021/06/03 01:14:49;;;;;;;7.53;3.60;;;21.30;61.90;;;19.91;59.46;100618.38;5012978;28;20049;-86
2021/06/03 01:17:27;;;;;;;7.03;3.38;;;21.30;62.30;;;19.90;59.60;100622.19;5030994;28;20046;-86
2021/06/03 01:20:06;;;;;;;8.10;3.75;;;21.30;62.10;;;19.88;59.71;100616.06;5030566;28;20133;-85
2021/06/03 01:23:05;;;;;;;7.13;3.60;;;21.20;62.50;;;19.86;59.81;100618.25;5030940;28;20056;-86
2021/06/03 01:25:47;;;;;;;6.60;3.60;;;21.20;62.40;;;19.85;59.97;100615.72;5013161;28;20053;-87
2021/06/03 01:28:26;;;;;;;6.38;3.33;;;21.20;62.60;;;19.83;60.02;100610.44;5008603;28;20509;-87
2021/06/03 01:31:06;;;;;;;8.10;3.58;;;21.10;62.50;;;19.80;59.84;100607.31;4988774;28;20055;-86
2021/06/03 01:33:42;;;;;;;8.32;3.20;;;21.10;62.80;;;19.78;60.31;100604.81;5001562;28;20076;-86
2021/06/03 01:36:20;;;;;;;7.63;3.40;;;21.10;63.80;;;19.76;60.66;100612.47;4993018;28;20065;-86
2021/06/03 01:38:55;;;;;;;6.20;3.40;;;21.00;64.10;;;19.75;60.31;100613.59;4975078;28;20050;-86
2021/06/03 01:41:51;;;;;;;6.88;3.80;;;21.00;63.90;;;19.72;60.48;100605.78;4973111;28;20046;-86
2021/06/03 01:44:23;;;;;;;;;;;20.90;64.20;;;19.70;60.49;100602.38;4990143;28;20132;-86
2021/06/03 01:47:01;;;;;;;8.57;4.00;;;20.90;64.30;;;19.69;60.69;100606.25;4973393;28;20413;-86
2021/06/03 01:49:39;;;;;;;5.93;3.50;;;20.90;64.50;;;19.66;60.64;100599.28;4990576;28;20051;-86
2021/06/03 01:52:24;;;;;;;7.18;3.70;;;20.90;64.20;;;19.65;60.59;100599.53;4973070;28;20057;-86
2021/06/03 01:55:02;;;;;;;8.35;3.75;;;20.80;64.40;;;19.62;61.22;100603.59;5003868;28;20049;-86
2021/06/03 01:57:58;;;;;;;8.38;3.75;;;20.80;64.90;;;19.60;61.24;100602.19;4991253;28;20058;-87
2021/06/03 02:00:43;;;;;;;7.38;3.10;;;20.70;65.50;;;19.58;61.51;100598.81;4992333;28;20057;-87
2021/06/03 02:03:24;;;;;;;6.53;3.50;;;20.70;65.90;;;19.56;61.48;100596.28;4992697;28;20050;-86
2021/06/03 02:06:01;;;;;;;6.23;3.37;;;20.70;65.90;;;19.54;61.82;100593.78;4992573;28;20062;-86
2021/06/03 02:08:42;;;;;;;7.72;3.65;;;20.60;66.10;;;19.52;62.15;100595.94;5022092;28;20514;-86
2021/06/03 02:11:26;;;;;;;7.45;3.78;;;20.60;66.10;;;19.50;62.01;100595.34;5011590;28;20123;-86
2021/06/03 02:14:09;;;;;;;6.95;3.90;;;20.60;66.70;;;19.49;62.12;100601.94;5012082;28;20076;-86
2021/06/03 02:17:02;;;;;;;7.32;3.88;;;20.60;66.90;;;19.48;62.45;100605.78;5012024;28;20053;-86
2021/06/03 02:19:51;;;;;;;7.18;3.97;;;20.50;66.80;;;19.45;62.36;100597.97;4996424;28;20092;-86
2021/06/03 02:22:31;;;;;;;6.03;3.30;;;20.50;66.90;;;19.45;62.35;100605.44;5009881;28;20037;-87
2021/06/03 02:25:10;;;;;;;;;;;20.50;67.00;;;19.45;62.75;100608.19;5010348;28;20092;-86
2021/06/03 02:27:48;;;;;;;8.05;3.65;;;20.50;67.30;;;19.43;62.77;100610.34;4992074;28;19976;-86
2021/06/03 02:30:29;;;;;;;7.25;3.75;;;20.50;67.80;;;19.41;63.35;100616.09;4991804;28;20058;-86
2021/06/03 02:33:09;;;;;;;6.65;3.42;;;20.50;67.80;;;19.41;63.06;100612.50;4991939;28;20081;-86
2021/06/03 02:35:48;;;;;;;5.97;3.53;;;20.50;67.60;;;19.41;63.07;100615.28;4991935;28;20042;-86
2021/06/03 02:38:31;;;;;;;7.00;4.05;;;20.50;67.90;;;19.39;63.27;100618.28;4991729;28;20057;-86
2021/06/03 02:41:13;;;;;;;7.15;3.55;;;20.50;68.10;;;19.39;63.60;100626.56;5009274;28;20578;-86
2021/06/03 02:43:54;;;;;;;7.65;3.67;;;20.50;68.10;;;19.39;63.67;100622.97;5009602;28;20523;-86
2021/06/03 02:46:35;;;;;;;6.55;3.25;;;20.50;68.10;;;19.38;63.71;100627.66;5009455;28;20539;-86
2021/06/03 02:49:15;;;;;;;7.47;3.63;;;20.50;68.50;;;19.38;63.76;100622.13;5009387;28;20046;-86
2021/06/03 02:51:48;;;;;;;7.00;3.50;;;20.50;68.80;;;19.37;63.57;100631.47;4991678;28;20542;-86
2021/06/03 02:54:26;;;;;;;8.45;3.35;;;20.40;68.40;;;19.38;63.78;100627.66;5009148;28;20046;-86
2021/06/03 02:57:02;;;;;;;6.40;3.60;;;20.50;69.00;;;19.36;64.30;100631.72;4991576;28;20574;-85
2021/06/03 02:59:42;;;;;;;7.88;3.50;;;20.50;69.10;;;19.34;64.24;100631.94;4991020;28;20076;-86
2021/06/03 03:02:25;;;;;;;6.57;3.35;;;20.40;68.70;;;19.37;63.96;100636.16;5009366;28;20042;-86
2021/06/03 03:05:04;;;;;;;6.88;3.58;;;20.40;68.90;;;19.36;64.39;100638.06;4991510;28;20540;-86
2021/06/03 03:07:37;;;;;;;10.05;3.20;;;20.40;69.20;;;19.34;64.52;100643.84;5009219;28;20041;-87
2021/06/03 03:10:20;;;;;;;6.32;3.45;;;20.40;68.80;;;19.33;64.57;100646.84;4975044;28;20429;-86
2021/06/03 03:12:57;;;;;;;8.63;3.72;;;20.40;69.20;;;19.33;64.24;100652.34;4991489;28;20057;-85
2021/06/03 03:15:33;;;;;;;4.95;3.10;;;20.40;69.50;;;19.32;64.37;100657.03;5009154;28;20090;-86
2021/06/03 03:18:11;;;;;;;6.35;3.38;;;20.40;69.30;;;19.29;64.88;100652.00;4991363;28;20045;-86
2021/06/03 03:20:51;;;;;;;6.88;3.58;;;20.40;69.30;;;19.29;64.81;100663.03;4990958;28;20042;-86
2021/06/03 03:23:27;;;;;;;5.72;3.30;;;20.40;69.70;;;19.28;64.70;100660.50;4991255;28;20081;-86
2021/06/03 03:26:08;;;;;;;6.40;3.65;;;20.30;69.20;;;19.27;64.76;100664.34;5008966;28;20100;-86
2021/06/03 03:28:47;;;;;;;6.63;3.25;;;20.30;69.70;;;19.26;64.78;100665.41;5008858;28;20046;-86
2021/06/03 03:31:24;;;;;;;9.18;3.47;;;20.30;69.50;;;19.27;64.65;100678.16;5008617;28;20557;-86
2021/06/03 03:34:03;;;;;;;7.32;3.53;;;20.30;69.40;;;19.24;65.07;100673.09;4991017;28;20593;-86
2021/06/03 03:36:41;;;;;;;;;;;20.30;69.80;;;19.23;64.74;100672.28;4991590;28;20160;-86
2021/06/03 03:39:24;;;;;;;7.82;3.42;;;20.30;69.90;;;19.23;65.08;100676.91;5007298;28;19932;-86
2021/06/03 03:42:02;;;;;;;6.32;3.40;;;20.30;70.00;;;19.21;64.92;100670.81;4991192;28;20041;-86
2021/06/03 03:44:35;;;;;;;7.30;3.38;;;20.30;69.80;;;19.21;64.86;100673.56;4991092;28;20073;-86
2021/06/03 03:47:14;;;;;;;7.43;3.30;;;20.30;69.70;;;19.21;64.68;100676.31;4991185;28;20050;-85
2021/06/03 03:49:51;;;;;;;7.18;3.20;;;20.30;69.60;;;19.20;64.70;100678.25;5008536;28;20453;-89
2021/06/03 03:52:27;;;;;;;6.55;3.22;;;20.30;69.80;;;19.20;64.79;100674.66;5008834;28;20058;-84
2021/06/03 03:55:03;;;;;;;5.35;3.22;;;20.20;69.90;;;19.18;64.80;100677.66;5007522;28;20061;-83
2021/06/03 03:57:41;;;;;;;5.22;3.00;;;20.20;70.00;;;19.18;65.24;100682.34;4991170;28;20053;-86
2021/06/03 04:00:24;;;;;;;6.30;2.90;;;20.20;70.30;;;19.18;65.09;100682.34;5008504;28;20053;-87
2021/06/03 04:03:14;;;;;;;6.38;2.80;;;20.20;70.20;;;19.16;65.35;100681.75;4971728;28;20140;-87
2021/06/03 04:06:18;;;;;;;4.45;3.08;;;20.20;70.50;;;19.14;65.56;100685.56;4989256;28;20533;-85
2021/06/03 04:08:55;;;;;;;5.90;2.90;;;20.20;70.50;;;19.14;65.92;100682.81;4999764;28;20548;-86
2021/06/03 04:11:32;;;;;;;4.95;2.80;;;20.20;70.40;;;19.14;65.58;100682.81;5008053;28;20075;-86
2021/06/03 04:14:11;;;;;;;6.57;2.97;;;20.20;70.50;;;19.17;65.77;100691.69;5007430;28;20505;-86
2021/06/03 04:16:47;;;;;;;6.40;2.42;;;20.30;70.00;;;19.20;65.99;100702.25;4992659;28;20510;-86
2021/06/03 04:19:26;;;;;;;5.18;2.47;;;20.30;70.10;;;19.21;65.77;100698.41;4994582;28;20133;-86
2021/06/03 04:22:06;;;;;;;5.63;2.72;;;20.40;70.00;;;19.22;65.98;100706.44;4994790;28;20074;-87
2021/06/03 04:24:48;;;;;;;7.15;2.53;;;20.40;69.80;;;19.24;66.17;100703.47;4994716;28;20053;-85
2021/06/03 04:27:26;;;;;;;6.10;2.67;;;20.50;70.30;;;19.25;66.29;100705.16;5012181;28;20049;-83
2021/06/03 04:30:04;;;;;;;5.63;3.05;;;20.50;70.20;;;19.26;66.26;100715.09;5011786;28;20042;-87
2021/06/03 04:32:39;;;;;;;5.45;2.83;;;20.50;70.60;;;19.30;66.23;100708.00;5012216;28;20046;-85
2021/06/03 04:35:19;;;;;;;5.47;2.58;;;20.50;70.60;;;19.34;66.62;100709.22;5012229;28;20041;-86
2021/06/03 04:38:06;;;;;;;4.97;2.70;;;20.60;70.30;;;19.38;66.45;100717.88;5012171;28;20049;-85
2021/06/03 04:40:36;;;;;;;6.57;3.63;;;20.70;70.20;;;19.41;66.77;100721.00;5011706;28;20052;-84
2021/06/03 04:43:15;;;;;;;5.20;2.83;;;20.80;70.40;;;19.43;67.35;100715.25;5012062;28;20050;-84
2021/06/03 04:45:53;;;;;;;4.90;2.30;;;20.90;70.80;;;19.46;67.30;100714.78;5011928;28;20042;-85
2021/06/03 04:48:31;;;;;;;6.13;2.97;;;20.90;70.60;;;19.49;67.39;100725.31;5010213;28;20046;-87
2021/06/03 04:51:04;;;;;;;4.35;2.42;;;20.90;70.50;;;19.50;67.59;100725.09;5011612;28;20046;-86
2021/06/03 04:53:41;;;;;;;5.55;2.67;;;20.90;70.50;;;19.53;67.41;100723.75;4993813;28;20051;-86
2021/06/03 04:56:16;;;;;;;5.97;2.70;;;20.90;70.50;;;19.54;67.42;100725.44;5011999;28;20050;-86
2021/06/03 04:58:55;;;;;;;5.38;2.60;;;21.00;70.20;;;19.54;67.33;100725.44;5011850;28;20055;-85
2021/06/03 05:01:33;;;;;;;9.15;3.00;;;21.00;70.30;;;19.58;67.22;100728.56;5011555;28;20042;-86
2021/06/03 05:04:08;;;;;;;7.03;2.85;;;21.00;70.20;;;19.60;67.24;100734.69;5011690;28;20846;-84
2021/06/03 05:06:46;;;;;;;4.75;2.50;;;21.00;70.00;;;19.63;67.27;100734.19;5011704;28;20042;-86
2021/06/03 05:09:23;;;;;;;6.85;2.95;;;21.10;70.50;;;19.67;67.63;100740.94;5029352;28;20426;-86
2021/06/03 05:12:04;;;;;;;6.32;2.85;;;21.10;70.80;;;19.72;67.60;100741.94;5031288;28;20111;-84
2021/06/03 05:14:42;;;;;;;6.97;2.75;;;21.20;70.50;;;19.77;68.05;100746.75;5031332;28;20463;-84
2021/06/03 05:17:20;;;;;;;5.15;2.47;;;21.30;70.60;;;19.82;68.19;100746.88;5031252;28;20145;-83
2021/06/03 05:19:56;;;;;;;8.27;2.60;;;21.40;70.30;;;19.85;67.79;100749.13;5030681;28;20037;-85
2021/06/03 05:22:31;;;;;;;5.35;2.80;;;21.40;70.20;;;19.89;67.59;100747.56;5030948;28;20046;-84
2021/06/03 05:25:13;;;;;;;6.07;2.72;;;21.50;70.10;;;19.94;67.74;100743.25;5031146;28;20433;-85
2021/06/03 05:27:51;;;;;;;6.18;2.53;;;21.50;70.20;;;19.98;67.66;100747.22;5030870;28;20049;-85
2021/06/03 05:30:31;;;;;;;6.38;3.00;;;21.60;70.30;;;20.04;68.42;100751.78;5030580;28;20042;-85
2021/06/03 05:33:09;;;;;;;4.72;2.47;;;21.60;70.40;;;20.09;67.91;100746.38;5030881;28;20064;-85
2021/06/03 05:35:44;;;;;;;7.47;2.75;;;21.70;70.30;;;20.15;67.91;100750.09;5030939;28;20060;-85
2021/06/03 05:38:22;;;;;;;10.30;2.90;;;21.80;70.00;;;20.22;68.24;100754.41;5030772;28;20060;-85
2021/06/03 05:40:56;;;;;;;5.70;2.65;;;21.90;70.10;;;20.28;67.88;100750.66;5030352;28;20045;-83
2021/06/03 05:43:31;;;;;;;6.43;2.67;;;22.00;69.70;;;20.35;68.39;100752.44;5030523;28;20099;-87
2021/06/03 05:46:07;;;;;;;4.60;2.50;;;22.20;69.90;;;20.41;68.74;100752.31;5030818;28;20057;-86
2021/06/03 05:48:42;;;;;;;6.90;2.78;;;22.30;70.00;;;20.51;68.59;100757.22;5030667;28;20045;-86
2021/06/03 05:51:20;;;;;;;6.47;3.10;;;22.50;70.10;;;20.63;68.99;100765.50;5010562;28;20657;-86
2021/06/03 05:53:52;;;;;;;6.32;2.97;;;22.70;69.60;;;20.69;68.82;100765.38;5010484;28;20038;-86
2021/06/03 05:56:43;;;;;;;5.00;2.67;;;22.90;68.90;;;20.75;66.87;100773.75;4992933;28;20389;-87
2021/06/03 05:59:21;;;;;;;5.25;2.42;;;22.90;67.90;;;20.79;66.34;100769.41;5010313;28;20496;-86
2021/06/03 06:02:01;;;;;;;5.93;2.65;;;22.90;67.20;;;20.80;66.54;100771.09;5010456;28;20041;-87
2021/06/03 06:07:27;;;;;;;;;;;22.80;67.10;;;20.79;65.99;100766.63;5009889;28;20153;-86
2021/06/03 06:10:06;;;;;;;6.18;2.30;;;22.70;67.30;;;20.78;64.50;100784.34;5010216;28;19932;-86
2021/06/03 06:12:42;;;;;;;5.85;2.63;;;22.70;66.60;;;20.76;65.70;100784.56;5010364;28;20042;-84
2021/06/03 06:15:21;;;;;;;4.30;2.47;;;22.60;67.10;;;20.76;65.89;100786.50;5010905;28;20054;-84
2021/06/03 06:17:59;;;;;;;5.53;2.83;;;22.60;67.60;;;20.76;66.58;100786.50;5010324;28;20038;-85
2021/06/03 06:20:38;;;;;;;5.40;2.53;;;22.80;67.20;;;20.78;65.74;100784.34;5009851;28;20077;-85
2021/06/03 06:23:17;;;;;;;6.53;2.70;;;22.80;66.60;;;20.77;65.79;100786.28;4989818;28;20145;-85
2021/06/03 06:25:56;;;;;;;7.80;2.90;;;22.80;67.10;;;20.77;66.73;100788.16;5008071;28;20800;-85
2021/06/03 06:28:30;;;;;;;5.30;2.75;;;22.70;67.50;;;20.76;66.54;100795.63;5010026;28;20073;-85
2021/06/03 06:31:09;;;;;;;10.10;3.80;;;22.70;68.00;;;20.76;68.09;100797.56;5066808;23;20049;-93
2021/06/03 06:33:51;;;;;;;7.03;3.00;;;22.70;68.90;;;20.76;67.94;100803.09;5029338;28;20052;-94
2021/06/03 06:47:35;;;;;;;6.90;4.10;;;22.50;70.40;;;20.72;69.91;100807.44;5048978;28;20509;-90
2021/06/03 06:50:14;;;;;;;10.18;4.13;;;22.60;70.90;;;20.73;70.94;100818.25;5039854;28;20045;-84
2021/06/03 06:52:58;;;;;;;11.38;4.00;;;22.50;71.10;;;20.74;70.87;100816.34;5048259;28;20405;-85
2021/06/03 06:55:36;;;;;;;9.20;4.25;;;22.50;71.40;;;20.73;71.67;100815.47;5032163;28;20070;-85
2021/06/03 06:58:15;;;;;;;9.25;4.50;;;22.50;72.10;;;20.73;72.21;100821.00;5048652;28;20655;-85
2021/06/03 07:00:53;;;;;;;;;;;22.50;72.50;;;20.74;71.95;100821.88;5049317;28;20041;-85
2021/06/03 07:03:44;;;;;;;11.15;4.95;;;22.50;72.50;;;20.75;71.66;100823.53;5049099;28;19925;-83
2021/06/03 07:06:22;;;;;;;11.07;4.78;;;22.60;72.40;;;20.78;72.69;100825.81;5049205;28;20068;-86
2021/06/03 07:08:57;;;;;;;8.73;4.43;;;22.60;73.00;;;;;;5048901;28;20041;-85
2021/06/03 07:11:35;;;;;;;11.45;4.68;;;22.60;73.00;;;20.86;72.36;100828.19;5048787;28;20037;-83
2021/06/03 07:14:14;;;;;;;8.30;3.70;;;22.70;72.90;;;20.85;71.65;100824.59;5048980;28;20045;-82
2021/06/03 07:16:52;;;;;;;7.40;4.00;;;22.70;72.30;;;20.87;72.26;100833.50;5043963;28;20036;-82
2021/06/03 07:19:31;;;;;;;6.95;3.92;;;22.70;72.80;;;20.91;73.11;100833.84;5044508;28;20045;-85
2021/06/03 07:22:09;;;;;;;12.80;4.60;;;22.80;73.40;;;20.98;74.40;100829.00;5047362;28;20041;-83
2021/06/03 07:24:45;;;;;;;7.68;4.07;;;22.80;74.20;;;21.12;75.58;100831.50;5045960;28;20045;-89
2021/06/03 07:27:23;;;;;;;9.68;4.38;;;22.90;75.20;;;21.18;75.41;100830.50;5047234;28;20102;-82
2021/06/03 07:30:00;;;;;;;9.63;4.07;;;22.90;75.30;;;21.24;76.14;100832.25;5047016;28;20045;-82
2021/06/03 07:32:39;;;;;;;6.60;3.75;;;23.00;75.80;;;21.26;74.54;100830.91;5047393;28;20049;-82
2021/06/03 07:35:20;;;;;;;7.53;4.18;;;23.10;74.70;;;21.30;73.93;100836.81;5030972;28;20049;-82
2021/06/03 07:37:59;;;;;;;10.60;3.97;;;23.10;74.20;;;21.32;72.97;100834.63;5048794;28;20049;-83
2021/06/03 07:40:41;;;;;;;6.47;4.07;;;23.10;73.60;;;21.34;72.76;100840.75;5048368;28;20494;-82
2021/06/03 07:43:18;;;;;;;10.45;4.25;;;23.10;73.80;;;21.39;73.58;100840.84;5048721;28;20413;-83
2021/06/03 07:45:56;;;;;;;11.40;4.07;;;23.10;74.10;;;21.45;74.04;100845.41;5048482;28;20045;-86
2021/06/03 07:48:34;;;;;;;7.05;4.47;;;23.20;74.50;;;21.45;73.76;100850.13;5048536;28;20057;-87
2021/06/03 07:51:12;;;;;;;7.38;4.00;;;23.30;73.70;;;21.52;73.90;100838.91;5048822;28;20410;-86
2021/06/03 07:53:50;;;;;;;5.85;3.88;;;23.30;74.50;;;21.52;74.28;100844.44;5052836;28;20516;-86
2021/06/03 07:56:29;;;;;;;5.85;4.00;;;23.30;74.00;;;21.60;75.45;100844.03;5052436;28;20049;-86
2021/06/03 07:59:07;;;;;;;10.68;4.30;;;23.40;75.20;;;21.66;75.77;100843.03;5032356;28;20057;-86
2021/06/03 08:01:45;;;;;;;9.35;4.28;;;23.50;75.70;;;21.70;74.22;100841.44;5032344;28;20042;-86
2021/06/03 08:04:20;;;;;;;8.10;4.07;;;23.50;74.00;;;21.69;74.70;100844.47;5032597;28;20462;-86
2021/06/03 08:07:00;;;;;;;9.20;4.25;;;23.50;74.00;;;21.70;75.50;100835.88;5032518;28;20057;-84
2021/06/03 08:09:38;;;;;;;7.80;4.05;;;23.50;75.10;;;21.70;74.40;100840.59;5031961;28;20045;-84
2021/06/03 08:12:14;;;;;;;6.68;4.10;;;23.50;74.00;;;21.69;74.23;100842.53;5032379;28;20513;-84
2021/06/03 08:14:57;;;;;;;7.57;4.40;;;23.50;74.20;;;21.65;73.77;100844.13;5032316;28;20046;-84
2021/06/03 08:17:35;;;;;;;6.72;4.00;;;23.50;73.50;;;21.61;74.27;100843.78;5032376;28;20045;-84
2021/06/03 08:20:17;;;;;;;10.10;4.20;;;23.50;74.00;;;21.60;75.27;100844.03;5031587;28;20064;-84
2021/06/03 08:22:54;;;;;;;7.93;3.83;;;23.50;74.20;;;21.58;75.75;100843.44;5032212;28;20045;-84
2021/06/03 08:25:32;;;;;;;9.35;4.35;;;23.40;74.80;;;21.57;74.88;100848.16;5032129;28;20076;-84
2021/06/03 08:28:10;;;;;;;7.43;4.25;;;23.40;74.60;;;21.58;74.54;100852.59;5041914;28;20037;-84
2021/06/03 08:30:48;;;;;;;6.82;4.03;;;23.40;74.10;;;21.55;74.42;100852.25;5049168;28;20041;-84
2021/06/03 08:33:24;;;;;;;7.05;3.88;;;23.40;74.00;;;21.54;75.10;100862.50;5049230;28;20037;-84
2021/06/03 08:36:00;;;;;;;8.98;4.63;;;23.40;74.80;;;21.51;75.60;100851.91;5033503;28;20056;-84
2021/06/03 08:38:41;;;;;;;7.32;3.88;;;23.40;75.20;;;21.47;75.51;100859.03;5033974;28;20098;-84
2021/06/03 08:41:22;;;;;;;10.93;4.80;;;23.30;75.30;;;21.46;76.37;100858.19;5049324;28;20120;-88
2021/06/03 08:43:55;;;;;;;8.23;4.75;;;23.30;75.80;;;21.47;76.11;100867.34;5050158;28;20053;-87
2021/06/03 08:46:33;;;;;;;8.38;4.85;;;23.30;75.50;;;21.45;76.37;100870.34;5050592;28;20052;-85
2021/06/03 08:49:14;;;;;;;9.93;4.85;;;23.30;75.80;;;21.46;76.44;100869.28;5051495;28;20044;-84
2021/06/03 08:51:52;;;;;;;8.00;3.92;;;23.30;75.80;;;21.47;75.37;100876.47;5051684;28;20420;-88
2021/06/03 08:54:33;;;;;;;10.15;4.72;;;23.30;75.30;;;21.52;75.62;100883.22;5052115;28;20033;-90
2021/06/03 08:57:29;;;;;;;10.57;4.72;;;23.30;76.90;;;21.65;79.26;100877.38;5052101;28;20075;-91
2021/06/03 09:00:17;;;;;;;10.30;4.22;;;23.40;78.80;;;21.72;74.12;100877.19;5051858;28;20045;-92
2021/06/03 09:02:50;;;;;;;5.95;3.47;;;23.50;76.30;;;21.74;74.28;100878.66;5049555;28;20642;-85
2021/06/03 09:05:29;;;;;;;7.22;3.38;;;23.50;75.60;;;21.82;72.33;100881.00;5051460;28;20041;-85
2021/06/03 09:08:27;;;;;;;6.43;3.22;;;23.60;75.50;;;21.79;70.71;100878.72;5052050;28;20052;-94
2021/06/03 09:11:10;;;;;;;10.27;4.07;;;23.60;72.90;;;21.82;74.34;100880.16;5033116;28;20061;-90
2021/06/03 09:13:49;;;;;;;7.68;4.18;;;23.60;74.70;;;21.81;75.95;100879.31;5050794;28;20041;-90
2021/06/03 09:16:28;;;;;;;6.35;4.03;;;23.70;75.80;;;21.85;76.07;100886.00;5050279;28;20049;-89
2021/06/03 09:19:13;;;;;;;7.13;3.97;;;23.60;75.60;;;21.81;76.19;100884.84;5051010;28;20694;-90
2021/06/03 09:22:07;;;;;;;6.50;4.10;;;23.70;75.60;;;21.79;74.12;100892.56;5049322;28;20579;-90
2021/06/03 09:24:51;;;;;;;8.00;4.03;;;23.70;74.90;;;21.97;76.57;100890.66;5051016;28;20063;-91
2021/06/03 09:27:35;;;;;;;7.30;4.38;;;23.70;76.40;;;22.03;76.39;100895.19;5033072;28;20064;-90
2021/06/03 09:30:12;;;;;;;7.57;4.00;;;23.80;76.00;;;22.01;74.52;100889.06;5050584;28;20041;-90
2021/06/03 09:33:00;;;;;;;9.10;4.22;;;23.80;74.80;;;21.95;75.08;100896.47;5051048;28;20053;-89
2021/06/03 09:36:01;;;;;;;7.25;4.60;;;23.80;74.70;;;21.93;74.49;100901.38;5050895;28;20037;-92
2021/06/03 09:38:54;;;;;;;6.32;3.88;;;23.80;74.60;;;21.90;76.27;100901.06;5051194;28;20041;-91
2021/06/03 09:41:34;;;;;;;10.15;4.75;;;23.80;75.20;;;21.92;76.40;100905.25;5048918;28;20056;-91
2021/06/03 09:44:19;;;;;;;11.43;5.07;;;23.80;76.00;;;21.89;74.88;100905.75;5032947;28;20045;-91
2021/06/03 09:46:59;;;;;;;8.07;4.40;;;23.80;74.80;;;21.85;75.51;100905.41;5032908;28;20052;-91
2021/06/03 09:49:38;;;;;;;9.98;4.65;;;23.70;74.90;;;21.83;75.70;100902.06;5049333;28;20067;-90
2021/06/03 09:52:16;;;;;;;9.27;5.15;;;23.70;75.00;;;21.81;76.11;100904.25;5032658;28;20086;-90
2021/06/03 09:54:56;;;;;;;6.43;4.30;;;23.70;75.40;;;21.79;77.02;100900.88;5049788;28;20098;-89
2021/06/03 09:57:38;;;;;;;9.00;4.90;;;23.70;76.20;;;21.80;76.62;100907.25;5032384;28;20464;-91
2021/06/03 10:00:26;;;;;;;8.90;4.93;;;23.70;75.80;;;21.77;75.74;100908.59;5050014;28;20052;-90
2021/06/03 10:03:05;;;;;;;8.52;4.93;;;23.70;75.70;;;21.76;77.94;100904.16;5031900;28;20119;-89
2021/06/03 10:05:43;;;;;;;9.57;4.38;;;23.60;76.90;;;21.79;77.64;100902.81;5030486;28;20056;-90
2021/06/03 10:08:21;;;;;;;9.02;5.18;;;23.60;76.50;;;21.87;77.14;100899.63;5030250;28;20096;-90
2021/06/03 10:10:59;;;;;;;15.70;5.20;;;23.60;76.60;;;21.85;76.49;100905.41;5029926;28;20529;-90
2021/06/03 10:13:37;;;;;;;8.88;5.40;;;23.70;75.70;;;21.86;77.68;100904.34;5029722;28;20041;-91
2021/06/03 10:16:39;;;;;;;8.13;4.95;;;23.70;76.60;;;21.85;77.60;100913.72;5030319;28;20052;-90
2021/06/03 10:19:29;;;;;;;6.68;4.32;;;23.70;77.20;;;21.87;78.98;100913.47;5030223;28;20041;-90
2021/06/03 10:22:30;;;;;;;9.07;4.82;;;23.70;77.80;;;21.92;79.36;100912.75;5030129;28;20037;-91
2021/06/03 10:25:16;;;;;;;7.63;4.85;;;23.70;77.90;;;21.92;77.99;100909.97;5016208;28;20053;-90
2021/06/03 10:27:55;;;;;;;8.85;4.65;;;23.70;77.00;;;21.92;78.33;100905.25;5030002;28;20045;-90
2021/06/03 10:30:37;;;;;;;10.70;5.28;;;23.80;77.60;;;21.92;78.46;100915.53;5011762;28;20046;-91
2021/06/03 10:33:14;;;;;;;10.05;5.43;;;23.70;77.30;;;21.93;77.34;100908.88;5030029;28;20053;-91
2021/06/03 10:35:51;;;;;;;8.13;4.30;;;23.70;76.50;;;21.92;76.50;100901.66;5012110;28;20056;-90
2021/06/03 10:38:28;;;;;;;9.02;5.20;;;23.70;76.30;;;21.91;78.60;100902.75;5029913;28;20050;-89
2021/06/03 10:41:11;;;;;;;7.97;4.50;;;23.70;77.60;;;21.92;77.56;100901.66;5029236;28;20045;-90
2021/06/03 10:43:46;;;;;;;8.95;4.95;;;23.70;77.20;;;21.93;77.14;100897.78;5029692;28;20056;-90
2021/06/03 10:46:25;;;;;;;13.40;5.60;;;23.80;76.70;;;21.94;77.63;100899.47;5011593;28;20099;-90
2021/06/03 10:49:04;;;;;;;9.35;5.50;;;23.80;76.70;;;21.99;78.75;100905.09;5029717;28;20049;-90
2021/06/03 10:51:42;;;;;;;10.13;6.10;;;23.80;77.70;;;21.99;77.65;100897.63;5011455;28;20502;-91
2021/06/03 10:54:15;;;;;;;9.38;5.32;;;23.80;77.00;;;21.98;77.63;100901.47;5029706;28;20071;-91
2021/06/03 10:57:03;;;;;;;8.77;5.68;;;23.80;76.70;;;22.01;77.09;100897.38;5011912;28;20059;-91
2021/06/03 10:59:42;;;;;;;8.73;4.60;;;23.80;76.70;;;22.02;77.79;100899.06;5050240;28;20063;-90
2021/06/03 11:02:21;;;;;;;7.40;4.88;;;23.80;76.90;;;22.01;79.07;100903.75;5069262;28;20048;-91
2021/06/03 11:05:01;;;;;;;7.85;4.82;;;23.80;78.10;;;22.02;77.71;100905.44;5069500;28;20052;-90
2021/06/03 11:07:42;;;;;;;8.73;4.95;;;23.80;77.30;;;22.00;77.61;100907.63;5051460;28;20067;-90
2021/06/03 11:10:48;;;;;;;9.80;4.72;;;23.80;76.80;;;22.00;76.99;100915.09;5068932;28;20344;-90
2021/06/03 11:13:30;;;;;;;8.40;4.80;;;23.80;76.70;;;21.98;77.30;100909.78;5006907;28;20125;-90
2021/06/03 11:16:18;;;;;;;9.30;5.13;;;23.80;77.10;;;21.97;77.93;100923.91;5047832;28;20097;-91
2021/06/03 11:19:21;;;;;;;9.95;4.65;;;23.80;77.10;;;21.98;80.22;100917.28;5050843;28;20114;-90